sensor_id;sensor_type;location;lat;lon;timestamp;pressure;altitude;pressure_sealevel;temperature;humidity
71770;BME280;66386;52.122;5.420;2023-04-30T00:00:36;102509.53;;;7.58;79.96
71770;BME280;66386;52.122;5.420;2023-04-30T00:03:03;102514.66;;;7.57;80.05
71770;BME280;66386;52.122;5.420;2023-04-30T00:05:30;102512.94;;;7.54;80.13
71770;BME280;66386;52.122;5.420;2023-04-30T00:07:57;102508.66;;;7.50;80.18
71770;BME280;66386;52.122;5.420;2023-04-30T00:10:23;102504.38;;;7.43;80.49
71770;BME280;66386;52.122;5.420;2023-04-30T00:12:49;102511.19;;;7.39;80.63
71770;BME280;66386;52.122;5.420;2023-04-30T00:15:16;102506.91;;;7.37;80.62
71770;BME280;66386;52.122;5.420;2023-04-30T00:17:42;102501.78;;;7.32;80.58
71770;BME280;66386;52.122;5.420;2023-04-30T00:20:09;102513.69;;;7.31;80.80
71770;BME280;66386;52.122;5.420;2023-04-30T00:22:36;102508.59;;;7.28;80.54
71770;BME280;66386;52.122;5.420;2023-04-30T00:25:02;102511.13;;;7.25;80.66
71770;BME280;66386;52.122;5.420;2023-04-30T00:27:29;102505.16;;;7.22;80.97
71770;BME280;66386;52.122;5.420;2023-04-30T00:29:57;102507.72;;;7.20;80.70
71770;BME280;66386;52.122;5.420;2023-04-30T00:32:24;102511.13;;;7.19;81.10
71770;BME280;66386;52.122;5.420;2023-04-30T00:34:50;102506.81;;;7.12;81.14
71770;BME280;66386;52.122;5.420;2023-04-30T00:37:17;102503.41;;;7.07;81.08
71770;BME280;66386;52.122;5.420;2023-04-30T00:39:43;102514.47;;;7.04;81.38
71770;BME280;66386;52.122;5.420;2023-04-30T00:42:10;102505.91;;;7.02;81.16
71770;BME280;66386;52.122;5.420;2023-04-30T00:44:36;102511.91;;;7.01;81.44
71770;BME280;66386;52.122;5.420;2023-04-30T00:47:03;102521.25;;;6.99;81.47
71770;BME280;66386;52.122;5.420;2023-04-30T00:49:29;102519.56;;;6.98;81.35
71770;BME280;66386;52.122;5.420;2023-04-30T00:51:56;102520.38;;;6.92;81.27
71770;BME280;66386;52.122;5.420;2023-04-30T00:54:23;102522.88;;;6.88;81.46
71770;BME280;66386;52.122;5.420;2023-04-30T00:56:50;102529.69;;;6.84;81.49
71770;BME280;66386;52.122;5.420;2023-04-30T00:59:17;102533.94;;;6.82;81.37
71770;BME280;66386;52.122;5.420;2023-04-30T01:01:44;102530.47;;;6.75;81.42
71770;BME280;66386;52.122;5.420;2023-04-30T01:04:11;102533.00;;;6.69;81.75
71770;BME280;66386;52.122;5.420;2023-04-30T01:06:37;102529.56;;;6.66;81.58
71770;BME280;66386;52.122;5.420;2023-04-30T01:09:04;102523.59;;;6.63;82.03
71770;BME280;66386;52.122;5.420;2023-04-30T01:17:32;102535.44;;;6.52;81.95
71770;BME280;66386;52.122;5.420;2023-04-30T01:20:00;102532.03;;;6.52;82.12
71770;BME280;66386;52.122;5.420;2023-04-30T01:25:03;102530.28;;;6.46;82.07
71770;BME280;66386;52.122;5.420;2023-04-30T01:27:56;102529.44;;;6.47;82.42
71770;BME280;66386;52.122;5.420;2023-04-30T01:30:28;102529.44;;;6.44;82.35
71770;BME280;66386;52.122;5.420;2023-04-30T01:32:55;102533.63;;;6.40;82.26
71770;BME280;66386;52.122;5.420;2023-04-30T01:35:45;102535.31;;;6.37;82.53
71770;BME280;66386;52.122;5.420;2023-04-30T01:41:05;102531.88;;;6.32;82.61
71770;BME280;66386;52.122;5.420;2023-04-30T01:44:02;102537.78;;;6.29;82.65
71770;BME280;66386;52.122;5.420;2023-04-30T01:46:31;102525.88;;;6.26;82.61
71770;BME280;66386;52.122;5.420;2023-04-30T01:52:07;102539.47;;;6.22;82.73
71770;BME280;66386;52.122;5.420;2023-04-30T01:54:44;102537.72;;;6.20;82.72
71770;BME280;66386;52.122;5.420;2023-04-30T01:57:32;102542.81;;;6.18;82.66
71770;BME280;66386;52.122;5.420;2023-04-30T02:00:00;102548.72;;;6.14;83.19
71770;BME280;66386;52.122;5.420;2023-04-30T02:02:26;102541.91;;;6.11;83.24
71770;BME280;66386;52.122;5.420;2023-04-30T02:04:53;102539.34;;;6.10;83.04
71770;BME280;66386;52.122;5.420;2023-04-30T02:07:43;102547.00;;;6.10;83.37
71770;BME280;66386;52.122;5.420;2023-04-30T02:10:10;102545.31;;;6.10;83.27
71770;BME280;66386;52.122;5.420;2023-04-30T02:12:39;102542.69;;;6.06;83.13
71770;BME280;66386;52.122;5.420;2023-04-30T02:15:06;102541.84;;;6.04;83.17
71770;BME280;66386;52.122;5.420;2023-04-30T02:17:33;102549.50;;;6.04;83.24
71770;BME280;66386;52.122;5.420;2023-04-30T02:19:59;102545.22;;;6.01;83.10
71770;BME280;66386;52.122;5.420;2023-04-30T02:22:26;102536.63;;;5.96;83.32
71770;BME280;66386;52.122;5.420;2023-04-30T02:24:52;102540.84;;;5.92;83.47
71770;BME280;66386;52.122;5.420;2023-04-30T02:27:22;102535.72;;;5.92;83.40
71770;BME280;66386;52.122;5.420;2023-04-30T02:29:50;102528.06;;;5.92;83.58
71770;BME280;66386;52.122;5.420;2023-04-30T02:32:17;102529.75;;;5.89;83.42
71770;BME280;66386;52.122;5.420;2023-04-30T02:34:44;102523.75;;;5.85;83.82
71770;BME280;66386;52.122;5.420;2023-04-30T02:37:11;102527.97;;;5.82;83.71
71770;BME280;66386;52.122;5.420;2023-04-30T02:39:37;102534.75;;;5.80;83.80
71770;BME280;66386;52.122;5.420;2023-04-30T02:42:03;102532.19;;;5.78;83.77
71770;BME280;66386;52.122;5.420;2023-04-30T02:44:32;102535.59;;;5.77;83.87
71770;BME280;66386;52.122;5.420;2023-04-30T02:47:00;102534.69;;;5.73;84.00
71770;BME280;66386;52.122;5.420;2023-04-30T02:49:27;102529.56;;;5.72;83.84
71770;BME280;66386;52.122;5.420;2023-04-30T02:51:54;102518.50;;;5.70;84.25
71770;BME280;66386;52.122;5.420;2023-04-30T02:54:20;102527.00;;;5.69;84.33
71770;BME280;66386;52.122;5.420;2023-04-30T02:56:47;102528.69;;;5.67;84.35
71770;BME280;66386;52.122;5.420;2023-04-30T02:59:13;102528.66;;;5.65;84.47
71770;BME280;66386;52.122;5.420;2023-04-30T03:01:40;102518.38;;;5.60;84.63
71770;BME280;66386;52.122;5.420;2023-04-30T03:04:06;102518.34;;;5.57;84.77
71770;BME280;66386;52.122;5.420;2023-04-30T03:06:33;102522.59;;;5.54;84.78
71770;BME280;66386;52.122;5.420;2023-04-30T03:08:59;102525.94;;;5.51;84.76
71770;BME280;66386;52.122;5.420;2023-04-30T03:11:26;102522.50;;;5.46;84.77
71770;BME280;66386;52.122;5.420;2023-04-30T03:13:52;102524.19;;;5.46;84.97
71770;BME280;66386;52.122;5.420;2023-04-30T03:16:19;102524.13;;;5.41;84.86
71770;BME280;66386;52.122;5.420;2023-04-30T03:18:47;102529.19;;;5.38;85.25
71770;BME280;66386;52.122;5.420;2023-04-30T03:21:14;102524.91;;;5.35;84.76
71770;BME280;66386;52.122;5.420;2023-04-30T03:23:41;102521.50;;;5.33;84.87
71770;BME280;66386;52.122;5.420;2023-04-30T03:26:07;102524.03;;;5.33;84.93
71770;BME280;66386;52.122;5.420;2023-04-30T03:28:34;102524.03;;;5.32;84.81
71770;BME280;66386;52.122;5.420;2023-04-30T03:31:01;102516.31;;;5.27;84.90
71770;BME280;66386;52.122;5.420;2023-04-30T03:33:31;102520.50;;;5.22;84.95
71770;BME280;66386;52.122;5.420;2023-04-30T03:35:58;102516.19;;;5.18;85.08
71770;BME280;66386;52.122;5.420;2023-04-30T03:38:25;102525.53;;;5.16;85.07
71770;BME280;66386;52.122;5.420;2023-04-30T03:40:51;102517.84;;;5.13;85.04
71770;BME280;66386;52.122;5.420;2023-04-30T03:43:18;102521.16;;;5.07;85.33
71770;BME280;66386;52.122;5.420;2023-04-30T03:45:44;102516.06;;;5.05;85.06
71770;BME280;66386;52.122;5.420;2023-04-30T03:48:12;102505.00;;;5.06;85.20
71770;BME280;66386;52.122;5.420;2023-04-30T03:50:38;102504.16;;;5.06;85.16
71770;BME280;66386;52.122;5.420;2023-04-30T03:53:04;102508.38;;;5.04;85.33
71770;BME280;66386;52.122;5.420;2023-04-30T03:55:32;102508.38;;;5.02;85.29
71770;BME280;66386;52.122;5.420;2023-04-30T03:57:59;102509.19;;;5.00;85.23
71770;BME280;66386;52.122;5.420;2023-04-30T04:00:25;102510.84;;;4.99;85.13
71770;BME280;66386;52.122;5.420;2023-04-30T04:02:52;102517.63;;;4.97;85.18
71770;BME280;66386;52.122;5.420;2023-04-30T04:05:18;102512.50;;;4.96;85.16
71770;BME280;66386;52.122;5.420;2023-04-30T04:07:45;102514.19;;;4.94;85.45
71770;BME280;66386;52.122;5.420;2023-04-30T04:10:11;102511.56;;;4.90;85.63
71770;BME280;66386;52.122;5.420;2023-04-30T04:12:38;102520.06;;;4.89;85.63
71770;BME280;66386;52.122;5.420;2023-04-30T04:15:05;102514.97;;;4.88;85.54
71770;BME280;66386;52.122;5.420;2023-04-30T04:17:31;102514.09;;;4.87;85.53
71770;BME280;66386;52.122;5.420;2023-04-30T04:19:58;102518.28;;;4.84;85.83
71770;BME280;66386;52.122;5.420;2023-04-30T04:22:24;102511.41;;;4.78;85.75
71770;BME280;66386;52.122;5.420;2023-04-30T04:24:51;102511.41;;;4.78;85.92
71770;BME280;66386;52.122;5.420;2023-04-30T04:27:17;102505.50;;;4.79;85.97
71770;BME280;66386;52.122;5.420;2023-04-30T04:29:45;102508.91;;;4.81;85.95
71770;BME280;66386;52.122;5.420;2023-04-30T04:32:13;102507.22;;;4.82;86.04
71770;BME280;66386;52.122;5.420;2023-04-30T04:34:40;102513.19;;;4.84;85.80
71770;BME280;66386;52.122;5.420;2023-04-30T04:37:08;102513.19;;;4.84;86.09
71770;BME280;66386;52.122;5.420;2023-04-30T04:39:35;102519.16;;;4.84;85.70
71770;BME280;66386;52.122;5.420;2023-04-30T04:42:03;102514.94;;;4.86;85.93
71770;BME280;66386;52.122;5.420;2023-04-30T04:44:30;102520.06;;;4.88;85.99
71770;BME280;66386;52.122;5.420;2023-04-30T04:46:57;102520.03;;;4.86;85.74
71770;BME280;66386;52.122;5.420;2023-04-30T04:49:24;102527.69;;;4.86;86.13
71770;BME280;66386;52.122;5.420;2023-04-30T04:51:50;102526.81;;;4.86;86.18
71770;BME280;66386;52.122;5.420;2023-04-30T04:54:17;102526.00;;;4.88;86.09
71770;BME280;66386;52.122;5.420;2023-04-30T04:56:43;102533.66;;;4.88;86.15
71770;BME280;66386;52.122;5.420;2023-04-30T04:59:09;102529.47;;;4.92;86.21
71770;BME280;66386;52.122;5.420;2023-04-30T05:01:36;102527.75;;;4.93;86.37
71770;BME280;66386;52.122;5.420;2023-04-30T05:04:02;102522.69;;;4.94;86.21
71770;BME280;66386;52.122;5.420;2023-04-30T05:06:29;102519.31;;;4.95;86.18
71770;BME280;66386;52.122;5.420;2023-04-30T05:08:57;102526.13;;;4.98;86.41
71770;BME280;66386;52.122;5.420;2023-04-30T05:11:23;102518.47;;;4.98;86.40
71770;BME280;66386;52.122;5.420;2023-04-30T05:13:50;102515.09;;;4.99;86.63
71770;BME280;66386;52.122;5.420;2023-04-30T05:16:17;102513.41;;;4.99;86.46
71770;BME280;66386;52.122;5.420;2023-04-30T05:18:43;102516.84;;;5.01;86.49
71770;BME280;66386;52.122;5.420;2023-04-30T05:21:10;102509.22;;;5.04;86.78
71770;BME280;66386;52.122;5.420;2023-04-30T05:23:36;102507.53;;;5.06;87.12
71770;BME280;66386;52.122;5.420;2023-04-30T05:26:03;102514.41;;;5.11;87.07
71770;BME280;66386;52.122;5.420;2023-04-30T05:28:30;102523.81;;;5.15;87.39
71770;BME280;66386;52.122;5.420;2023-04-30T05:30:56;102522.19;;;5.20;87.65
71770;BME280;66386;52.122;5.420;2023-04-30T05:33:23;102527.34;;;5.26;87.94
71770;BME280;66386;52.122;5.420;2023-04-30T05:35:49;102531.69;;;5.33;88.23
71770;BME280;66386;52.122;5.420;2023-04-30T05:38:16;102530.94;;;5.40;88.17
71770;BME280;66386;52.122;5.420;2023-04-30T05:40:42;102535.25;;;5.46;88.10
71770;BME280;66386;52.122;5.420;2023-04-30T05:43:09;102536.13;;;5.48;88.17
71770;BME280;66386;52.122;5.420;2023-04-30T05:45:35;102536.16;;;5.53;88.29
71770;BME280;66386;52.122;5.420;2023-04-30T05:48:02;102546.44;;;5.60;88.16
71770;BME280;66386;52.122;5.420;2023-04-30T05:50:28;102549.09;;;5.68;88.15
71770;BME280;66386;52.122;5.420;2023-04-30T05:52:55;102548.31;;;5.72;88.43
71770;BME280;66386;52.122;5.420;2023-04-30T05:55:21;102549.19;;;5.76;88.43
71770;BME280;66386;52.122;5.420;2023-04-30T05:57:47;102549.25;;;5.85;88.58
71770;BME280;66386;52.122;5.420;2023-04-30T06:00:14;102557.84;;;5.92;88.45
71770;BME280;66386;52.122;5.420;2023-04-30T06:02:41;102555.31;;;5.95;88.39
71770;BME280;66386;52.122;5.420;2023-04-30T06:05:07;102555.41;;;6.01;88.35
71770;BME280;66386;52.122;5.420;2023-04-30T06:07:34;102559.75;;;6.08;88.40
71770;BME280;66386;52.122;5.420;2023-04-30T06:10:02;102558.09;;;6.14;88.56
71770;BME280;66386;52.122;5.420;2023-04-30T06:12:28;102557.34;;;6.22;88.42
71770;BME280;66386;52.122;5.420;2023-04-30T06:14:55;102553.09;;;6.27;88.55
71770;BME280;66386;52.122;5.420;2023-04-30T06:17:21;102564.25;;;6.36;88.78
71770;BME280;66386;52.122;5.420;2023-04-30T06:19:48;102565.19;;;6.45;88.66
71770;BME280;66386;52.122;5.420;2023-04-30T06:22:14;102570.41;;;6.59;88.49
71770;BME280;66386;52.122;5.420;2023-04-30T06:24:41;102565.13;;;8.18;88.32
71770;BME280;66386;52.122;5.420;2023-04-30T06:27:07;102558.19;;;10.60;81.22
71770;BME280;66386;52.122;5.420;2023-04-30T06:29:34;102551.84;;;11.65;75.90
71770;BME280;66386;52.122;5.420;2023-04-30T06:32:00;102554.16;;;12.43;70.54
71770;BME280;66386;52.122;5.420;2023-04-30T06:34:26;102549.81;;;12.43;69.79
71770;BME280;66386;52.122;5.420;2023-04-30T06:36:53;102553.25;;;12.44;68.99
71770;BME280;66386;52.122;5.420;2023-04-30T06:39:19;102560.88;;;11.97;71.41
71770;BME280;66386;52.122;5.420;2023-04-30T06:41:46;102553.66;;;11.58;71.01
71770;BME280;66386;52.122;5.420;2023-04-30T06:44:12;102561.03;;;11.17;72.89
71770;BME280;66386;52.122;5.420;2023-04-30T06:46:40;102563.81;;;10.97;73.92
71770;BME280;66386;52.122;5.420;2023-04-30T06:49:06;102553.03;;;10.64;75.96
71770;BME280;66386;52.122;5.420;2023-04-30T06:51:33;102557.25;;;10.69;74.93
71770;BME280;66386;52.122;5.420;2023-04-30T06:53:59;102558.16;;;10.66;74.35
71770;BME280;66386;52.122;5.420;2023-04-30T06:56:26;102554.72;;;10.64;74.87
71770;BME280;66386;52.122;5.420;2023-04-30T06:58:52;102559.66;;;10.86;76.21
71770;BME280;66386;52.122;5.420;2023-04-30T07:01:18;102561.22;;;11.00;74.10
71770;BME280;66386;52.122;5.420;2023-04-30T07:03:45;102563.72;;;11.07;72.72
71770;BME280;66386;52.122;5.420;2023-04-30T07:06:12;102554.25;;;11.12;71.63
71770;BME280;66386;52.122;5.420;2023-04-30T07:08:39;102564.38;;;11.23;72.56
71770;BME280;66386;52.122;5.420;2023-04-30T07:11:06;102566.91;;;11.29;71.26
71770;BME280;66386;52.122;5.420;2023-04-30T07:13:33;102566.69;;;11.46;70.67
71770;BME280;66386;52.122;5.420;2023-04-30T07:15:59;102566.38;;;11.69;70.56
71770;BME280;66386;52.122;5.420;2023-04-30T07:18:26;102568.75;;;11.84;69.44
71770;BME280;66386;52.122;5.420;2023-04-30T07:20:53;102567.09;;;11.80;69.48
71770;BME280;66386;52.122;5.420;2023-04-30T07:23:19;102563.72;;;11.75;69.30
71770;BME280;66386;52.122;5.420;2023-04-30T07:25:46;102571.34;;;11.84;68.63
71770;BME280;66386;52.122;5.420;2023-04-30T07:28:12;102569.56;;;11.86;69.43
71770;BME280;66386;52.122;5.420;2023-04-30T07:30:39;102569.28;;;12.08;70.30
71770;BME280;66386;52.122;5.420;2023-04-30T07:33:06;102568.03;;;12.32;68.61
71770;BME280;66386;52.122;5.420;2023-04-30T07:35:33;102568.00;;;12.37;67.56
71770;BME280;66386;52.122;5.420;2023-04-30T07:38:00;102560.25;;;12.37;66.88
71770;BME280;66386;52.122;5.420;2023-04-30T07:40:27;102574.56;;;12.53;68.47
71770;BME280;66386;52.122;5.420;2023-04-30T07:43:02;102575.97;;;12.71;66.28
71770;BME280;66386;52.122;5.420;2023-04-30T07:45:30;102570.81;;;12.71;65.24
71770;BME280;66386;52.122;5.420;2023-04-30T07:47:57;102566.50;;;12.73;66.96
71770;BME280;66386;52.122;5.420;2023-04-30T07:50:23;102562.00;;;12.83;66.05
71770;BME280;66386;52.122;5.420;2023-04-30T07:52:49;102564.25;;;13.00;67.01
71770;BME280;66386;52.122;5.420;2023-04-30T07:55:16;102566.59;;;13.14;66.09
71770;BME280;66386;52.122;5.420;2023-04-30T07:57:42;102558.63;;;13.25;64.88
71770;BME280;66386;52.122;5.420;2023-04-30T08:00:09;102562.75;;;13.35;64.56
71770;BME280;66386;52.122;5.420;2023-04-30T08:02:35;102569.28;;;13.52;64.88
71770;BME280;66386;52.122;5.420;2023-04-30T08:05:03;102563.69;;;13.72;63.08
71770;BME280;66386;52.122;5.420;2023-04-30T08:07:29;102565.47;;;13.70;62.95
71770;BME280;66386;52.122;5.420;2023-04-30T08:09:55;102559.50;;;13.66;62.85
71770;BME280;66386;52.122;5.420;2023-04-30T08:12:22;102560.34;;;13.67;63.03
71770;BME280;66386;52.122;5.420;2023-04-30T08:14:49;102559.47;;;13.68;61.88
71770;BME280;66386;52.122;5.420;2023-04-30T08:17:15;102554.53;;;13.96;63.32
71770;BME280;66386;52.122;5.420;2023-04-30T08:19:41;102560.19;;;14.12;64.46
71770;BME280;66386;52.122;5.420;2023-04-30T08:22:08;102555.16;;;14.40;62.93
71770;BME280;66386;52.122;5.420;2023-04-30T08:24:34;102552.94;;;14.59;61.80
71770;BME280;66386;52.122;5.420;2023-04-30T08:27:01;102553.78;;;14.60;61.17
71770;BME280;66386;52.122;5.420;2023-04-30T08:29:29;102553.69;;;14.66;61.58
71770;BME280;66386;52.122;5.420;2023-04-30T08:32:01;102555.78;;;14.83;61.57
71770;BME280;66386;52.122;5.420;2023-04-30T08:34:28;102567.59;;;14.93;60.14
71770;BME280;66386;52.122;5.420;2023-04-30T08:36:54;102560.97;;;15.14;59.53
71770;BME280;66386;52.122;5.420;2023-04-30T08:39:21;102562.56;;;15.20;59.95
71770;BME280;66386;52.122;5.420;2023-04-30T08:41:53;102553.44;;;15.36;60.11
71770;BME280;66386;52.122;5.420;2023-04-30T08:44:21;102554.66;;;15.53;57.54
71770;BME280;66386;52.122;5.420;2023-04-30T08:46:53;102552.44;;;15.69;56.86
71770;BME280;66386;52.122;5.420;2023-04-30T08:49:21;102553.16;;;15.74;56.55
71770;BME280;66386;52.122;5.420;2023-04-30T08:51:50;102553.25;;;15.99;55.22
71770;BME280;66386;52.122;5.420;2023-04-30T08:54:17;102556.00;;;16.21;53.95
71770;BME280;66386;52.122;5.420;2023-04-30T08:56:45;102544.53;;;16.54;53.91
71770;BME280;66386;52.122;5.420;2023-04-30T08:59:12;102551.28;;;16.83;52.37
71770;BME280;66386;52.122;5.420;2023-04-30T09:01:38;102551.78;;;17.18;52.01
71770;BME280;66386;52.122;5.420;2023-04-30T09:04:05;102555.84;;;17.48;50.62
71770;BME280;66386;52.122;5.420;2023-04-30T09:06:32;102548.03;;;17.71;50.01
71770;BME280;66386;52.122;5.420;2023-04-30T09:09:10;102543.41;;;17.78;49.25
71770;BME280;66386;52.122;5.420;2023-04-30T09:11:38;102544.97;;;18.04;48.39
71770;BME280;66386;52.122;5.420;2023-04-30T09:14:05;102536.91;;;17.90;48.62
71770;BME280;66386;52.122;5.420;2023-04-30T09:16:48;102546.06;;;17.76;49.94
71770;BME280;66386;52.122;5.420;2023-04-30T09:19:25;102545.94;;;17.79;49.05
71770;BME280;66386;52.122;5.420;2023-04-30T09:21:53;102541.63;;;18.02;48.13
71770;BME280;66386;52.122;5.420;2023-04-30T09:24:20;102542.78;;;17.95;48.56
71770;BME280;66386;52.122;5.420;2023-04-30T09:26:46;102538.88;;;18.05;48.61
71770;BME280;66386;52.122;5.420;2023-04-30T09:29:14;102536.69;;;18.17;48.54
71770;BME280;66386;52.122;5.420;2023-04-30T09:31:44;102539.09;;;18.21;48.30
71770;BME280;66386;52.122;5.420;2023-04-30T09:34:13;102531.63;;;18.34;48.28
71770;BME280;66386;52.122;5.420;2023-04-30T09:36:52;102522.47;;;18.65;49.09
71770;BME280;66386;52.122;5.420;2023-04-30T09:39:20;102524.31;;;18.82;47.45
71770;BME280;66386;52.122;5.420;2023-04-30T09:41:46;102528.06;;;18.76;48.51
71770;BME280;66386;52.122;5.420;2023-04-30T09:44:30;102536.50;;;18.81;49.02
71770;BME280;66386;52.122;5.420;2023-04-30T09:46:57;102532.06;;;19.04;46.32
71770;BME280;66386;52.122;5.420;2023-04-30T09:49:24;102521.22;;;18.74;45.25
71770;BME280;66386;52.122;5.420;2023-04-30T09:52:00;102528.41;;;18.27;47.61
71770;BME280;66386;52.122;5.420;2023-04-30T09:54:29;102529.91;;;17.92;47.86
71770;BME280;66386;52.122;5.420;2023-04-30T09:56:59;102520.81;;;17.80;47.73
71770;BME280;66386;52.122;5.420;2023-04-30T09:59:29;102519.22;;;17.76;48.35
71770;BME280;66386;52.122;5.420;2023-04-30T10:02:01;102509.78;;;17.73;48.23
71770;BME280;66386;52.122;5.420;2023-04-30T10:04:30;102504.97;;;17.64;49.13
71770;BME280;66386;52.122;5.420;2023-04-30T10:07:01;102509.03;;;17.71;49.47
71770;BME280;66386;52.122;5.420;2023-04-30T10:09:34;102511.09;;;17.84;49.35
71770;BME280;66386;52.122;5.420;2023-04-30T10:12:06;102503.00;;;17.91;48.72
71770;BME280;66386;52.122;5.420;2023-04-30T10:14:34;102504.59;;;17.95;46.81
71770;BME280;66386;52.122;5.420;2023-04-30T10:17:12;102502.75;;;17.75;48.62
71770;BME280;66386;52.122;5.420;2023-04-30T10:19:45;102495.75;;;17.77;47.96
71770;BME280;66386;52.122;5.420;2023-04-30T10:22:13;102493.41;;;17.71;49.19
71770;BME280;66386;52.122;5.420;2023-04-30T10:24:41;102496.31;;;17.63;48.86
71770;BME280;66386;52.122;5.420;2023-04-30T10:27:08;102495.09;;;17.72;49.94
71770;BME280;66386;52.122;5.420;2023-04-30T10:29:34;102499.19;;;17.78;49.81
71770;BME280;66386;52.122;5.420;2023-04-30T10:32:01;102492.97;;;17.82;48.81
71770;BME280;66386;52.122;5.420;2023-04-30T10:34:40;102500.34;;;17.93;49.15
71770;BME280;66386;52.122;5.420;2023-04-30T10:37:14;102492.13;;;18.04;47.51
71770;BME280;66386;52.122;5.420;2023-04-30T10:39:45;102485.81;;;18.09;46.88
71770;BME280;66386;52.122;5.420;2023-04-30T10:42:12;102478.91;;;18.08;47.67
71770;BME280;66386;52.122;5.420;2023-04-30T10:44:39;102477.81;;;18.14;47.23
71770;BME280;66386;52.122;5.420;2023-04-30T10:47:06;102476.44;;;18.05;48.01
71770;BME280;66386;52.122;5.420;2023-04-30T10:49:33;102487.94;;;18.00;47.22
71770;BME280;66386;52.122;5.420;2023-04-30T10:52:01;102483.72;;;17.97;47.02
71770;BME280;66386;52.122;5.420;2023-04-30T10:54:35;102473.16;;;18.21;48.23
71770;BME280;66386;52.122;5.420;2023-04-30T10:57:13;102472.06;;;18.26;47.47
71770;BME280;66386;52.122;5.420;2023-04-30T10:59:50;102465.59;;;18.35;48.54
71770;BME280;66386;52.122;5.420;2023-04-30T11:02:18;102462.63;;;18.44;47.96
71770;BME280;66386;52.122;5.420;2023-04-30T11:07:30;102451.03;;;18.71;47.70
71770;BME280;66386;52.122;5.420;2023-04-30T11:09:56;102458.69;;;18.74;46.62
71770;BME280;66386;52.122;5.420;2023-04-30T11:12:25;102448.44;;;18.71;46.45
71770;BME280;66386;52.122;5.420;2023-04-30T11:15:18;102451.09;;;18.50;46.40
71770;BME280;66386;52.122;5.420;2023-04-30T11:17:47;102441.88;;;18.81;47.00
71770;BME280;66386;52.122;5.420;2023-04-30T11:20:19;102437.78;;;18.75;46.88
71770;BME280;66386;52.122;5.420;2023-04-30T11:22:46;102435.34;;;18.91;47.20
71770;BME280;66386;52.122;5.420;2023-04-30T11:25:18;102432.72;;;18.72;46.53
71770;BME280;66386;52.122;5.420;2023-04-30T11:27:44;102424.91;;;18.72;45.99
71770;BME280;66386;52.122;5.420;2023-04-30T11:30:16;102426.72;;;18.70;46.94
71770;BME280;66386;52.122;5.420;2023-04-30T11:32:45;102428.78;;;18.82;46.25
71770;BME280;66386;52.122;5.420;2023-04-30T11:35:15;102421.69;;;18.86;45.64
71770;BME280;66386;52.122;5.420;2023-04-30T11:37:43;102422.41;;;18.90;46.34
71770;BME280;66386;52.122;5.420;2023-04-30T11:40:12;102423.59;;;19.01;44.00
71770;BME280;66386;52.122;5.420;2023-04-30T11:42:40;102415.41;;;18.90;46.34
71770;BME280;66386;52.122;5.420;2023-04-30T11:45:15;102413.84;;;19.05;45.00
71770;BME280;66386;52.122;5.420;2023-04-30T11:47:51;102414.22;;;18.97;45.91
71770;BME280;66386;52.122;5.420;2023-04-30T11:50:20;102408.09;;;18.98;46.21
71770;BME280;66386;52.122;5.420;2023-04-30T11:52:54;102387.72;;;19.24;47.04
71770;BME280;66386;52.122;5.420;2023-04-30T11:55:22;102395.97;;;19.34;44.67
71770;BME280;66386;52.122;5.420;2023-04-30T11:57:51;102388.28;;;19.31;43.79
71770;BME280;66386;52.122;5.420;2023-04-30T12:00:19;102387.47;;;19.30;45.00
71770;BME280;66386;52.122;5.420;2023-04-30T12:02:48;102388.28;;;19.31;45.09
71770;BME280;66386;52.122;5.420;2023-04-30T12:05:16;102388.28;;;19.31;44.32
71770;BME280;66386;52.122;5.420;2023-04-30T12:08:05;102388.38;;;19.29;44.97
71770;BME280;66386;52.122;5.420;2023-04-30T12:10:32;102385.75;;;19.29;44.23
71770;BME280;66386;52.122;5.420;2023-04-30T12:12:58;102376.56;;;19.22;44.57
71770;BME280;66386;52.122;5.420;2023-04-30T12:15:25;102384.34;;;19.05;45.36
71770;BME280;66386;52.122;5.420;2023-04-30T12:17:55;102373.47;;;19.31;45.62
71770;BME280;66386;52.122;5.420;2023-04-30T12:20:23;102371.03;;;19.46;44.59
71770;BME280;66386;52.122;5.420;2023-04-30T12:22:50;102376.47;;;19.59;43.99
71770;BME280;66386;52.122;5.420;2023-04-30T12:25:20;102373.81;;;19.43;43.35
71770;BME280;66386;52.122;5.420;2023-04-30T12:27:48;102372.66;;;19.48;44.48
71770;BME280;66386;52.122;5.420;2023-04-30T12:30:22;102362.31;;;19.47;43.40
71770;BME280;66386;52.122;5.420;2023-04-30T12:32:51;102370.78;;;19.68;43.56
71770;BME280;66386;52.122;5.420;2023-04-30T12:35:20;102355.75;;;19.73;42.66
71770;BME280;66386;52.122;5.420;2023-04-30T12:37:54;102360.13;;;19.55;42.99
71770;BME280;66386;52.122;5.420;2023-04-30T12:40:26;102356.38;;;19.61;43.93
71770;BME280;66386;52.122;5.420;2023-04-30T12:43:03;102354.47;;;19.64;44.80
71770;BME280;66386;52.122;5.420;2023-04-30T12:45:51;102351.88;;;19.82;43.79
71770;BME280;66386;52.122;5.420;2023-04-30T12:48:19;102344.25;;;19.77;42.88
71770;BME280;66386;52.122;5.420;2023-04-30T12:51:08;102347.22;;;19.69;42.89
71770;BME280;66386;52.122;5.420;2023-04-30T12:53:43;102353.59;;;19.81;43.05
71770;BME280;66386;52.122;5.420;2023-04-30T12:56:17;102349.75;;;19.71;43.25
71770;BME280;66386;52.122;5.420;2023-04-30T12:58:46;102344.88;;;19.65;43.31
71770;BME280;66386;52.122;5.420;2023-04-30T13:01:21;102343.88;;;19.67;43.17
71770;BME280;66386;52.122;5.420;2023-04-30T13:03:51;102333.13;;;19.56;42.86
71770;BME280;66386;52.122;5.420;2023-04-30T13:06:20;102319.28;;;19.21;42.50
71770;BME280;66386;52.122;5.420;2023-04-30T13:08:48;102322.47;;;18.91;43.17
71770;BME280;66386;52.122;5.420;2023-04-30T13:11:24;102327.81;;;18.88;44.21
71770;BME280;66386;52.122;5.420;2023-04-30T13:13:52;102316.56;;;18.68;42.85
71770;BME280;66386;52.122;5.420;2023-04-30T13:16:20;102330.75;;;18.43;44.34
71770;BME280;66386;52.122;5.420;2023-04-30T13:18:47;102319.47;;;18.62;43.56